AAL106 KCLT-EDDF
Flight info
| Callsign | AAL106 |
|---|---|
| Flight time | N/A |
| Altitude | 35000 |
| Route | KRITR6 SMIAM DCT KIDDO Q22 BEARI DCT FAK DCT RBV DCT JFK DCT FOXWD DCT TUSKY Q475 SCOTS DCT PORTI/M083F370 NATT GISTI/N0477F390 DCT ENJEX DCT ADHAV DCT AGCAT DCT AXNEF DCT ZIPWE DCT OZZIL DCT SAWPE Q63 CPT UL9 BIG L607 KONAN UL607 SPI T180 NIVNU T847 IMCOM IMCOM1C |
| Aircraft | B772/H-SDE2E3FGHIJ5LORVWXY/LB1D1 |
Departure
| Time | 2026-05-05 00:00 |
|---|---|
| Airport | Charlotte Douglas International Airport (KCLT) |
Arrival
| Time | N/A |
|---|---|
| Airport | Frankfurt Main Airport (EDDF) |
| Time | Latitude | Longitude | Altitude | Speed | Heading |
|---|---|---|---|---|---|
| 2026-05-04 23:47 | 35.22000 | -80.94056 | 736 ft | 0 kts | 22° |
| 2026-05-04 23:53 | 35.21997 | -80.94057 | 736 ft | 3 kts | 21° |
| 2026-05-04 23:53 | 35.21978 | -80.94063 | 735 ft | 4 kts | 337° |
| 2026-05-04 23:53 | 35.21965 | -80.94048 | 735 ft | 4 kts | 321° |
| 2026-05-04 23:53 | 35.21950 | -80.94040 | 735 ft | 4 kts | 358° |
| 2026-05-04 23:54 | 35.21929 | -80.94043 | 735 ft | 4 kts | 37° |
| 2026-05-04 23:54 | 35.21916 | -80.94064 | 736 ft | 4 kts | 76° |
| 2026-05-04 23:54 | 35.21912 | -80.94094 | 736 ft | 4 kts | 85° |
| 2026-05-04 23:54 | 35.21910 | -80.94123 | 736 ft | 1 kts | 85° |
| 2026-05-04 23:56 | 35.21911 | -80.94122 | 736 ft | 3 kts | 85° |
| 2026-05-04 23:56 | 35.21895 | -80.94027 | 735 ft | 15 kts | 108° |
| 2026-05-04 23:57 | 35.21868 | -80.93885 | 737 ft | 18 kts | 89° |
| 2026-05-04 23:57 | 35.21918 | -80.93789 | 737 ft | 13 kts | 49° |
| 2026-05-04 23:57 | 35.21990 | -80.93718 | 737 ft | 14 kts | 12° |
| 2026-05-04 23:57 | 35.22083 | -80.93721 | 737 ft | 14 kts | 356° |
| 2026-05-04 23:58 | 35.22177 | -80.93728 | 737 ft | 14 kts | 357° |
| 2026-05-04 23:58 | 35.22272 | -80.93736 | 737 ft | 14 kts | 355° |
| 2026-05-04 23:58 | 35.22366 | -80.93743 | 737 ft | 14 kts | 356° |
| 2026-05-04 23:58 | 35.22459 | -80.93748 | 738 ft | 14 kts | 11° |
| 2026-05-04 23:59 | 35.22501 | -80.93657 | 740 ft | 11 kts | 99° |
| 2026-05-04 23:59 | 35.22445 | -80.93616 | 740 ft | 10 kts | 170° |
| 2026-05-04 23:59 | 35.22425 | -80.93614 | 740 ft | 8 kts | 175° |
| 2026-05-04 23:59 | 35.22236 | -80.93598 | 740 ft | 56 kts | 175° |
| 2026-05-05 00:00 | 35.21605 | -80.93543 | 740 ft | 126 kts | 176° |
| 2026-05-05 00:00 | 35.20918 | -80.93488 | 761 ft | 163 kts | 178° |
| 2026-05-05 00:00 | 35.19392 | -80.93297 | 1633 ft | 173 kts | 174° |
| 2026-05-05 00:00 | 35.18161 | -80.93091 | 2327 ft | 182 kts | 173° |
| 2026-05-05 00:01 | 35.16927 | -80.92581 | 2899 ft | 199 kts | 149° |
| 2026-05-05 00:01 | 35.15954 | -80.91232 | 3305 ft | 227 kts | 120° |
| 2026-05-05 00:01 | 35.15545 | -80.89305 | 3944 ft | 245 kts | 96° |
| 2026-05-05 00:01 | 35.15466 | -80.87129 | 4325 ft | 271 kts | 96° |
| 2026-05-05 00:02 | 35.15367 | -80.84734 | 4977 ft | 289 kts | 96° |
| 2026-05-05 00:02 | 35.15193 | -80.82395 | 6163 ft | 274 kts | 93° |